sensor_id;sensor_type;location;lat;lon;timestamp;pressure;altitude;pressure_sealevel;temperature;humidity
21960;BME280;11144;43.030;25.108;2023-12-29T00:00:12;100037.44;;;-0.93;72.76
21960;BME280;11144;43.030;25.108;2023-12-29T00:01:45;100036.50;;;-0.92;72.55
21960;BME280;11144;43.030;25.108;2023-12-29T00:03:18;100046.06;;;-0.94;72.18
21960;BME280;11144;43.030;25.108;2023-12-29T00:04:52;100040.28;;;-0.98;72.37
21960;BME280;11144;43.030;25.108;2023-12-29T00:06:25;100034.47;;;-1.01;72.51
21960;BME280;11144;43.030;25.108;2023-12-29T00:07:59;100031.84;;;-1.00;72.78
21960;BME280;11144;43.030;25.108;2023-12-29T00:09:31;100036.06;;;-0.99;73.01
21960;BME280;11144;43.030;25.108;2023-12-29T00:11:17;100028.34;;;-0.99;72.81
21960;BME280;11144;43.030;25.108;2023-12-29T00:12:50;100030.81;;;-0.97;72.53
21960;BME280;11144;43.030;25.108;2023-12-29T00:14:22;100029.00;;;-0.95;72.87
21960;BME280;11144;43.030;25.108;2023-12-29T00:15:56;100029.72;;;-0.93;72.82
21960;BME280;11144;43.030;25.108;2023-12-29T00:17:28;100028.78;;;-0.92;72.81
21960;BME280;11144;43.030;25.108;2023-12-29T00:19:02;100036.25;;;-0.88;72.57
21960;BME280;11144;43.030;25.108;2023-12-29T00:20:36;100027.31;;;-0.96;72.35
21960;BME280;11144;43.030;25.108;2023-12-29T00:22:13;100042.13;;;-0.86;72.49
21960;BME280;11144;43.030;25.108;2023-12-29T00:23:45;100002.41;;;-1.10;73.21
21960;BME280;11144;43.030;25.108;2023-12-29T00:25:18;100041.38;;;-0.88;71.98
21960;BME280;11144;43.030;25.108;2023-12-29T00:26:52;100041.56;;;-0.91;71.93
21960;BME280;11144;43.030;25.108;2023-12-29T00:28:24;100042.41;;;-0.90;72.41
21960;BME280;11144;43.030;25.108;2023-12-29T00:29:57;100045.97;;;-0.93;72.52
21960;BME280;11144;43.030;25.108;2023-12-29T00:31:30;100038.34;;;-0.94;72.66
21960;BME280;11144;43.030;25.108;2023-12-29T00:33:03;100047.44;;;-1.03;71.88
21960;BME280;11144;43.030;25.108;2023-12-29T00:34:37;100042.56;;;-1.07;71.79
21960;BME280;11144;43.030;25.108;2023-12-29T00:36:15;100050.84;;;-1.16;72.13
21960;BME280;11144;43.030;25.108;2023-12-29T00:37:50;100042.81;;;-1.26;72.24
21960;BME280;11144;43.030;25.108;2023-12-29T00:39:23;100044.13;;;-1.33;73.06
21960;BME280;11144;43.030;25.108;2023-12-29T00:41:01;100054.66;;;-1.37;72.87
21960;BME280;11144;43.030;25.108;2023-12-29T00:42:34;100046.75;;;-1.34;73.15
21960;BME280;11144;43.030;25.108;2023-12-29T00:44:06;100050.06;;;-1.32;72.89
21960;BME280;11144;43.030;25.108;2023-12-29T00:45:40;100054.31;;;-1.31;72.85
21960;BME280;11144;43.030;25.108;2023-12-29T00:47:12;100027.38;;;-1.40;72.54
21960;BME280;11144;43.030;25.108;2023-12-29T00:48:46;100052.63;;;-1.32;71.95
21960;BME280;11144;43.030;25.108;2023-12-29T00:50:19;100046.84;;;-1.36;72.80
21960;BME280;11144;43.030;25.108;2023-12-29T00:51:53;100044.28;;;-1.36;73.14
21960;BME280;11144;43.030;25.108;2023-12-29T00:53:27;100045.44;;;-1.41;72.90
21960;BME280;11144;43.030;25.108;2023-12-29T00:55:00;100046.38;;;-1.42;72.45
21960;BME280;11144;43.030;25.108;2023-12-29T00:56:34;100048.94;;;-1.42;73.19
21960;BME280;11144;43.030;25.108;2023-12-29T00:58:06;100044.63;;;-1.42;73.65
21960;BME280;11144;43.030;25.108;2023-12-29T00:59:41;100046.00;;;-1.36;73.09
21960;BME280;11144;43.030;25.108;2023-12-29T01:01:14;100050.53;;;-1.40;72.47
21960;BME280;11144;43.030;25.108;2023-12-29T01:02:47;100052.34;;;-1.42;73.14
21960;BME280;11144;43.030;25.108;2023-12-29T01:04:19;100051.41;;;-1.41;73.20
21960;BME280;11144;43.030;25.108;2023-12-29T01:05:53;100047.00;;;-1.39;72.92
21960;BME280;11144;43.030;25.108;2023-12-29T01:07:27;100051.25;;;-1.38;73.51
21960;BME280;11144;43.030;25.108;2023-12-29T01:09:00;100052.72;;;-1.34;73.39
21960;BME280;11144;43.030;25.108;2023-12-29T01:10:32;100051.91;;;-1.34;73.80
21960;BME280;11144;43.030;25.108;2023-12-29T01:12:06;100040.13;;;-1.38;73.44
21960;BME280;11144;43.030;25.108;2023-12-29T01:13:38;100053.31;;;-1.29;72.96
21960;BME280;11144;43.030;25.108;2023-12-29T01:15:11;100058.34;;;-1.27;73.66
21960;BME280;11144;43.030;25.108;2023-12-29T01:16:44;100054.78;;;-1.25;73.33
21960;BME280;11144;43.030;25.108;2023-12-29T01:18:20;100060.66;;;-1.23;73.35
21960;BME280;11144;43.030;25.108;2023-12-29T01:19:53;100063.13;;;-1.21;73.47
21960;BME280;11144;43.030;25.108;2023-12-29T01:21:26;100056.25;;;-1.21;73.23
21960;BME280;11144;43.030;25.108;2023-12-29T01:23:01;100061.28;;;-1.19;73.13
21960;BME280;11144;43.030;25.108;2023-12-29T01:24:33;100057.19;;;-1.22;73.02
21960;BME280;11144;43.030;25.108;2023-12-29T01:26:17;100046.94;;;-1.23;73.06
21960;BME280;11144;43.030;25.108;2023-12-29T01:27:49;100048.69;;;-1.24;72.78
21960;BME280;11144;43.030;25.108;2023-12-29T01:29:22;100050.53;;;-1.26;72.52
21960;BME280;11144;43.030;25.108;2023-12-29T01:30:55;100036.31;;;-1.31;72.74
21960;BME280;11144;43.030;25.108;2023-12-29T01:32:29;100052.00;;;-1.36;73.08
21960;BME280;11144;43.030;25.108;2023-12-29T01:34:01;100046.94;;;-1.37;73.03
21960;BME280;11144;43.030;25.108;2023-12-29T01:35:35;100051.25;;;-1.38;73.58
21960;BME280;11144;43.030;25.108;2023-12-29T01:37:07;100051.06;;;-1.35;73.07
21960;BME280;11144;43.030;25.108;2023-12-29T01:38:43;100053.63;;;-1.35;73.13
21960;BME280;11144;43.030;25.108;2023-12-29T01:40:15;100034.25;;;-1.40;72.92
21960;BME280;11144;43.030;25.108;2023-12-29T01:41:49;100042.59;;;-1.37;73.02
21960;BME280;11144;43.030;25.108;2023-12-29T01:43:23;100045.44;;;-1.41;73.11
21960;BME280;11144;43.030;25.108;2023-12-29T01:44:56;100041.34;;;-1.44;73.15
21960;BME280;11144;43.030;25.108;2023-12-29T01:46:31;100042.34;;;-1.46;73.30
21960;BME280;11144;43.030;25.108;2023-12-29T01:48:04;100024.28;;;-1.61;73.45
21960;BME280;11144;43.030;25.108;2023-12-29T01:49:38;100040.66;;;-1.48;73.51
21960;BME280;11144;43.030;25.108;2023-12-29T01:51:11;100038.81;;;-1.45;73.73
21960;BME280;11144;43.030;25.108;2023-12-29T01:52:46;100016.31;;;-1.56;73.31
21960;BME280;11144;43.030;25.108;2023-12-29T01:54:21;100028.53;;;-1.45;73.17
21960;BME280;11144;43.030;25.108;2023-12-29T01:55:55;100032.78;;;-1.44;73.41
21960;BME280;11144;43.030;25.108;2023-12-29T01:57:30;100033.63;;;-1.44;73.47
21960;BME280;11144;43.030;25.108;2023-12-29T01:59:07;100033.69;;;-1.45;73.03
21960;BME280;11144;43.030;25.108;2023-12-29T02:00:50;100025.13;;;-1.46;73.23
21960;BME280;11144;43.030;25.108;2023-12-29T02:02:22;100031.38;;;-1.50;73.06
21960;BME280;11144;43.030;25.108;2023-12-29T02:03:56;100005.81;;;-1.67;72.50
21960;BME280;11144;43.030;25.108;2023-12-29T02:05:29;100030.75;;;-1.54;72.54
21960;BME280;11144;43.030;25.108;2023-12-29T02:07:04;100031.75;;;-1.56;72.97
21960;BME280;11144;43.030;25.108;2023-12-29T02:08:36;100033.41;;;-1.55;73.59
21960;BME280;11144;43.030;25.108;2023-12-29T02:10:11;100034.22;;;-1.55;73.74
21960;BME280;11144;43.030;25.108;2023-12-29T02:11:48;100028.34;;;-1.57;72.96
21960;BME280;11144;43.030;25.108;2023-12-29T02:13:21;100027.44;;;-1.56;72.92
21960;BME280;11144;43.030;25.108;2023-12-29T02:14:54;100029.16;;;-1.56;73.27
21960;BME280;11144;43.030;25.108;2023-12-29T02:16:33;100018.16;;;-1.58;73.94
21960;BME280;11144;43.030;25.108;2023-12-29T02:18:11;100012.44;;;-1.63;73.70
21960;BME280;11144;43.030;25.108;2023-12-29T02:19:48;100023.94;;;-1.55;73.78
21960;BME280;11144;43.030;25.108;2023-12-29T02:21:23;100021.56;;;-1.58;73.52
21960;BME280;11144;43.030;25.108;2023-12-29T02:22:57;100019.78;;;-1.57;73.50
21960;BME280;11144;43.030;25.108;2023-12-29T02:24:30;100015.69;;;-1.60;72.94
21960;BME280;11144;43.030;25.108;2023-12-29T02:26:09;100020.81;;;-1.60;73.32
21960;BME280;11144;43.030;25.108;2023-12-29T02:27:46;99998.38;;;-1.72;73.01
21960;BME280;11144;43.030;25.108;2023-12-29T02:29:23;100019.16;;;-1.61;73.54
21960;BME280;11144;43.030;25.108;2023-12-29T02:31:01;100019.97;;;-1.60;73.61
21960;BME280;11144;43.030;25.108;2023-12-29T02:32:40;100011.34;;;-1.59;73.83
21960;BME280;11144;43.030;25.108;2023-12-29T02:34:14;100016.31;;;-1.56;73.86
21960;BME280;11144;43.030;25.108;2023-12-29T02:35:52;100019.78;;;-1.57;73.16
21960;BME280;11144;43.030;25.108;2023-12-29T02:37:26;99999.69;;;-1.65;73.12
21960;BME280;11144;43.030;25.108;2023-12-29T02:39:00;100011.53;;;-1.62;73.23
21960;BME280;11144;43.030;25.108;2023-12-29T02:40:33;100006.56;;;-1.65;73.23
21960;BME280;11144;43.030;25.108;2023-12-29T02:42:07;100017.78;;;-1.66;73.33
21960;BME280;11144;43.030;25.108;2023-12-29T02:43:40;100016.19;;;-1.69;73.82
21960;BME280;11144;43.030;25.108;2023-12-29T02:45:13;100021.50;;;-1.72;73.74
21960;BME280;11144;43.030;25.108;2023-12-29T02:46:45;99999.88;;;-1.83;73.81
21960;BME280;11144;43.030;25.108;2023-12-29T02:48:19;100017.56;;;-1.77;73.64
21960;BME280;11144;43.030;25.108;2023-12-29T02:49:51;100021.03;;;-1.78;73.63
21960;BME280;11144;43.030;25.108;2023-12-29T02:51:24;100012.00;;;-1.85;73.68
21960;BME280;11144;43.030;25.108;2023-12-29T02:52:58;100011.44;;;-1.90;74.12
21960;BME280;11144;43.030;25.108;2023-12-29T02:54:30;100013.72;;;-1.86;73.97
21960;BME280;11144;43.030;25.108;2023-12-29T02:56:04;99991.06;;;-1.93;73.75
21960;BME280;11144;43.030;25.108;2023-12-29T02:57:38;100002.44;;;-1.83;73.67
21960;BME280;11144;43.030;25.108;2023-12-29T02:59:12;100013.56;;;-1.83;73.82
21960;BME280;11144;43.030;25.108;2023-12-29T03:00:45;100010.25;;;-1.85;73.43
21960;BME280;11144;43.030;25.108;2023-12-29T03:02:19;100002.97;;;-1.92;73.89
21960;BME280;11144;43.030;25.108;2023-12-29T03:03:52;100011.00;;;-1.83;73.78
21960;BME280;11144;43.030;25.108;2023-12-29T03:05:24;100013.47;;;-1.81;73.95
21960;BME280;11144;43.030;25.108;2023-12-29T03:06:58;100002.28;;;-1.80;74.08
21960;BME280;11144;43.030;25.108;2023-12-29T03:08:30;99995.69;;;-1.84;73.54
21960;BME280;11144;43.030;25.108;2023-12-29T03:10:05;100001.47;;;-1.81;73.77
21960;BME280;11144;43.030;25.108;2023-12-29T03:11:38;100000.63;;;-1.81;73.18
21960;BME280;11144;43.030;25.108;2023-12-29T03:13:12;100003.44;;;-1.86;72.81
21960;BME280;11144;43.030;25.108;2023-12-29T03:14:45;99999.50;;;-1.91;73.66
21960;BME280;11144;43.030;25.108;2023-12-29T03:16:19;100005.00;;;-1.97;73.73
21960;BME280;11144;43.030;25.108;2023-12-29T03:17:51;100004.31;;;-2.01;73.73
21960;BME280;11144;43.030;25.108;2023-12-29T03:19:25;100001.75;;;-2.01;74.02
21960;BME280;11144;43.030;25.108;2023-12-29T03:20:59;100005.31;;;-2.03;73.59
21960;BME280;11144;43.030;25.108;2023-12-29T03:22:32;100002.94;;;-2.06;73.47
21960;BME280;11144;43.030;25.108;2023-12-29T03:24:05;100003.09;;;-2.09;73.77
21960;BME280;11144;43.030;25.108;2023-12-29T03:25:38;100008.22;;;-2.09;73.59
21960;BME280;11144;43.030;25.108;2023-12-29T03:27:12;100003.19;;;-2.11;73.79
21960;BME280;11144;43.030;25.108;2023-12-29T03:28:46;100009.16;;;-2.10;73.60
21960;BME280;11144;43.030;25.108;2023-12-29T03:30:19;100002.50;;;-2.14;72.94
21960;BME280;11144;43.030;25.108;2023-12-29T03:31:51;99998.66;;;-2.21;73.47
21960;BME280;11144;43.030;25.108;2023-12-29T03:33:25;99975.56;;;-2.37;73.57
21960;BME280;11144;43.030;25.108;2023-12-29T03:34:58;99988.56;;;-2.40;73.67
21960;BME280;11144;43.030;25.108;2023-12-29T03:36:31;99993.84;;;-2.43;74.27
21960;BME280;11144;43.030;25.108;2023-12-29T03:38:06;99994.03;;;-2.46;74.39
21960;BME280;11144;43.030;25.108;2023-12-29T03:39:40;99995.03;;;-2.49;74.87
21960;BME280;11144;43.030;25.108;2023-12-29T03:41:13;99984.50;;;-2.60;73.94
21960;BME280;11144;43.030;25.108;2023-12-29T03:42:47;99999.56;;;-2.54;74.70
21960;BME280;11144;43.030;25.108;2023-12-29T03:44:20;99990.88;;;-2.51;74.44
21960;BME280;11144;43.030;25.108;2023-12-29T03:45:56;99992.44;;;-2.49;74.38
21960;BME280;11144;43.030;25.108;2023-12-29T03:47:29;99995.75;;;-2.47;74.49
21960;BME280;11144;43.030;25.108;2023-12-29T03:49:03;99994.88;;;-2.46;74.32
21960;BME280;11144;43.030;25.108;2023-12-29T03:50:37;99985.97;;;-2.40;74.57
21960;BME280;11144;43.030;25.108;2023-12-29T03:52:09;99986.72;;;-2.38;74.72
21960;BME280;11144;43.030;25.108;2023-12-29T03:53:42;99984.84;;;-2.35;74.46
21960;BME280;11144;43.030;25.108;2023-12-29T03:55:15;99987.97;;;-2.30;74.39
21960;BME280;11144;43.030;25.108;2023-12-29T03:56:48;99989.44;;;-2.26;74.35
21960;BME280;11144;43.030;25.108;2023-12-29T03:58:20;99992.84;;;-2.25;74.01
21960;BME280;11144;43.030;25.108;2023-12-29T03:59:55;99988.63;;;-2.26;74.08
21960;BME280;11144;43.030;25.108;2023-12-29T04:01:28;99990.13;;;-2.22;74.37
21960;BME280;11144;43.030;25.108;2023-12-29T04:03:01;99986.63;;;-2.21;73.93
21960;BME280;11144;43.030;25.108;2023-12-29T04:04:37;99989.78;;;-2.32;73.70
21960;BME280;11144;43.030;25.108;2023-12-29T04:06:09;99994.75;;;-2.29;74.09
21960;BME280;11144;43.030;25.108;2023-12-29T04:07:43;99995.66;;;-2.30;74.09
21960;BME280;11144;43.030;25.108;2023-12-29T04:09:15;100001.38;;;-2.25;74.29
21960;BME280;11144;43.030;25.108;2023-12-29T04:10:49;99998.72;;;-2.23;74.39
21960;BME280;11144;43.030;25.108;2023-12-29T04:12:23;99995.16;;;-2.20;74.41
21960;BME280;11144;43.030;25.108;2023-12-29T04:13:56;100000.28;;;-2.20;74.20
21960;BME280;11144;43.030;25.108;2023-12-29T04:15:31;99989.94;;;-2.19;74.21
21960;BME280;11144;43.030;25.108;2023-12-29T04:17:03;99989.28;;;-2.22;74.43
21960;BME280;11144;43.030;25.108;2023-12-29T04:18:45;100006.00;;;-2.15;74.07
21960;BME280;11144;43.030;25.108;2023-12-29T04:20:18;99988.94;;;-2.16;74.22
21960;BME280;11144;43.030;25.108;2023-12-29T04:21:51;99985.47;;;-2.15;74.17
21960;BME280;11144;43.030;25.108;2023-12-29T04:23:24;99985.72;;;-2.20;74.02
21960;BME280;11144;43.030;25.108;2023-12-29T04:24:57;99987.34;;;-2.19;74.28
21960;BME280;11144;43.030;25.108;2023-12-29T04:26:29;99989.13;;;-2.19;74.43
21960;BME280;11144;43.030;25.108;2023-12-29T04:28:03;99988.28;;;-2.20;74.43
21960;BME280;11144;43.030;25.108;2023-12-29T04:29:36;99982.66;;;-2.27;74.24
21960;BME280;11144;43.030;25.108;2023-12-29T04:31:10;99989.94;;;-2.19;73.96
21960;BME280;11144;43.030;25.108;2023-12-29T04:32:44;99998.56;;;-2.20;74.46
21960;BME280;11144;43.030;25.108;2023-12-29T04:34:16;99997.81;;;-2.22;75.01
21960;BME280;11144;43.030;25.108;2023-12-29T04:35:49;100000.19;;;-2.19;74.62
21960;BME280;11144;43.030;25.108;2023-12-29T04:37:23;99998.66;;;-2.21;74.52
21960;BME280;11144;43.030;25.108;2023-12-29T04:38:56;100002.69;;;-2.17;74.57
21960;BME280;11144;43.030;25.108;2023-12-29T04:40:28;100002.69;;;-2.17;74.43
21960;BME280;11144;43.030;25.108;2023-12-29T04:42:02;100011.66;;;-2.25;73.74
21960;BME280;11144;43.030;25.108;2023-12-29T04:43:34;100009.19;;;-2.42;74.36
21960;BME280;11144;43.030;25.108;2023-12-29T04:45:08;100020.09;;;-2.54;74.33
21960;BME280;11144;43.030;25.108;2023-12-29T04:46:42;100012.00;;;-2.62;74.66
21960;BME280;11144;43.030;25.108;2023-12-29T04:48:15;100023.34;;;-2.66;74.67
21960;BME280;11144;43.030;25.108;2023-12-29T04:49:47;100002.69;;;-2.80;74.70
21960;BME280;11144;43.030;25.108;2023-12-29T04:51:21;100017.69;;;-2.72;75.01
21960;BME280;11144;43.030;25.108;2023-12-29T04:52:53;100022.88;;;-2.74;74.78
21960;BME280;11144;43.030;25.108;2023-12-29T04:54:27;100024.72;;;-2.76;74.79
21960;BME280;11144;43.030;25.108;2023-12-29T04:55:59;100023.06;;;-2.77;74.73
21960;BME280;11144;43.030;25.108;2023-12-29T04:57:33;100030.78;;;-2.77;74.84
21960;BME280;11144;43.030;25.108;2023-12-29T04:59:05;100027.28;;;-2.76;75.25
21960;BME280;11144;43.030;25.108;2023-12-29T05:00:39;100022.16;;;-2.76;74.79
21960;BME280;11144;43.030;25.108;2023-12-29T05:02:13;100033.84;;;-2.70;74.49
21960;BME280;11144;43.030;25.108;2023-12-29T05:03:46;100033.00;;;-2.71;74.65
21960;BME280;11144;43.030;25.108;2023-12-29T05:05:18;100027.88;;;-2.71;74.53
21960;BME280;11144;43.030;25.108;2023-12-29T05:06:52;100033.00;;;-2.71;74.52
21960;BME280;11144;43.030;25.108;2023-12-29T05:08:25;100027.88;;;-2.71;74.67
21960;BME280;11144;43.030;25.108;2023-12-29T05:09:57;100034.72;;;-2.71;74.71
21960;BME280;11144;43.030;25.108;2023-12-29T05:11:31;100031.34;;;-2.72;74.54
21960;BME280;11144;43.030;25.108;2023-12-29T05:13:04;100032.91;;;-2.69;74.50
21960;BME280;11144;43.030;25.108;2023-12-29T05:14:37;100043.13;;;-2.68;74.58
21960;BME280;11144;43.030;25.108;2023-12-29T05:16:10;100042.19;;;-2.67;74.34
21960;BME280;11144;43.030;25.108;2023-12-29T05:17:45;100042.19;;;-2.67;74.48
21960;BME280;11144;43.030;25.108;2023-12-29T05:19:17;100046.50;;;-2.67;74.46
21960;BME280;11144;43.030;25.108;2023-12-29T05:20:51;100047.47;;;-2.70;73.66
21960;BME280;11144;43.030;25.108;2023-12-29T05:22:24;100039.28;;;-2.76;73.76
21960;BME280;11144;43.030;25.108;2023-12-29T05:23:57;100040.34;;;-2.80;73.51
21960;BME280;11144;43.030;25.108;2023-12-29T05:25:29;100040.44;;;-2.82;73.98
21960;BME280;11144;43.030;25.108;2023-12-29T05:27:03;100032.47;;;-2.93;74.03
21960;BME280;11144;43.030;25.108;2023-12-29T05:28:35;100042.59;;;-2.90;73.69
21960;BME280;11144;43.030;25.108;2023-12-29T05:30:10;100040.31;;;-2.96;73.61
21960;BME280;11144;43.030;25.108;2023-12-29T05:31:45;100043.63;;;-2.94;74.16
21960;BME280;11144;43.030;25.108;2023-12-29T05:33:34;100049.69;;;-2.95;74.25
21960;BME280;11144;43.030;25.108;2023-12-29T05:35:07;100051.16;;;-2.91;74.51
21960;BME280;11144;43.030;25.108;2023-12-29T05:36:40;100048.47;;;-2.88;74.65
21960;BME280;11144;43.030;25.108;2023-12-29T05:38:14;100049.22;;;-2.86;74.30
21960;BME280;11144;43.030;25.108;2023-12-29T05:39:47;100047.53;;;-2.87;74.42
21960;BME280;11144;43.030;25.108;2023-12-29T05:41:21;100045.66;;;-2.83;74.21
21960;BME280;11144;43.030;25.108;2023-12-29T05:42:53;100043.25;;;-2.86;74.14
21960;BME280;11144;43.030;25.108;2023-12-29T05:44:27;100028.09;;;-2.91;73.83
21960;BME280;11144;43.030;25.108;2023-12-29T05:45:59;100041.50;;;-2.86;74.33
21960;BME280;11144;43.030;25.108;2023-12-29T05:47:33;100059.22;;;-2.81;74.54
21960;BME280;11144;43.030;25.108;2023-12-29T05:49:06;100037.38;;;-2.88;74.62
21960;BME280;11144;43.030;25.108;2023-12-29T05:50:40;100054.59;;;-2.75;74.91
21960;BME280;11144;43.030;25.108;2023-12-29T05:52:12;100051.28;;;-2.77;74.12
21960;BME280;11144;43.030;25.108;2023-12-29T05:53:46;100049.38;;;-2.73;74.68
21960;BME280;11144;43.030;25.108;2023-12-29T05:55:18;100048.56;;;-2.74;74.84
21960;BME280;11144;43.030;25.108;2023-12-29T05:56:52;100053.63;;;-2.72;74.79
21960;BME280;11144;43.030;25.108;2023-12-29T05:58:25;100061.84;;;-2.66;74.86
21960;BME280;11144;43.030;25.108;2023-12-29T05:59:58;100056.69;;;-2.66;74.99
21960;BME280;11144;43.030;25.108;2023-12-29T06:01:31;100062.56;;;-2.64;74.78
21960;BME280;11144;43.030;25.108;2023-12-29T06:03:04;100050.03;;;-2.70;74.61
21960;BME280;11144;43.030;25.108;2023-12-29T06:04:39;100061.09;;;-2.68;74.25
21960;BME280;11144;43.030;25.108;2023-12-29T06:06:12;100058.66;;;-2.71;74.63
21960;BME280;11144;43.030;25.108;2023-12-29T06:07:45;100064.53;;;-2.69;74.00
21960;BME280;11144;43.030;25.108;2023-12-29T06:09:18;100067.25;;;-2.72;74.29
21960;BME280;11144;43.030;25.108;2023-12-29T06:10:50;100059.56;;;-2.72;74.57
21960;BME280;11144;43.030;25.108;2023-12-29T06:12:24;100058.66;;;-2.71;74.35
21960;BME280;11144;43.030;25.108;2023-12-29T06:13:56;100048.56;;;-2.74;74.63
21960;BME280;11144;43.030;25.108;2023-12-29T06:15:30;100058.75;;;-2.72;74.69
21960;BME280;11144;43.030;25.108;2023-12-29T06:17:03;100052.69;;;-2.71;74.58
21960;BME280;11144;43.030;25.108;2023-12-29T06:18:36;100062.81;;;-2.68;74.66
21960;BME280;11144;43.030;25.108;2023-12-29T06:20:12;100058.50;;;-2.68;74.74
21960;BME280;11144;43.030;25.108;2023-12-29T06:21:44;100046.72;;;-2.72;74.83
21960;BME280;11144;43.030;25.108;2023-12-29T06:23:17;100056.69;;;-2.66;74.78
21960;BME280;11144;43.030;25.108;2023-12-29T06:24:50;100058.19;;;-2.62;74.82
21960;BME280;11144;43.030;25.108;2023-12-29T06:26:23;100060.44;;;-2.56;74.87
21960;BME280;11144;43.030;25.108;2023-12-29T06:27:56;100062.84;;;-2.53;74.88
21960;BME280;11144;43.030;25.108;2023-12-29T06:29:29;100054.22;;;-2.52;74.81
21960;BME280;11144;43.030;25.108;2023-12-29T06:31:02;100058.13;;;-2.45;74.74
21960;BME280;11144;43.030;25.108;2023-12-29T06:32:36;100063.00;;;-2.40;74.77
21960;BME280;11144;43.030;25.108;2023-12-29T06:34:09;100056.78;;;-2.36;74.56
21960;BME280;11144;43.030;25.108;2023-12-29T06:35:44;100064.34;;;-2.33;74.40
21960;BME280;11144;43.030;25.108;2023-12-29T06:37:17;100062.38;;;-2.28;74.41
21960;BME280;11144;43.030;25.108;2023-12-29T06:38:50;100059.84;;;-2.30;74.36
21960;BME280;11144;43.030;25.108;2023-12-29T06:40:24;100074.63;;;-2.17;74.21
21960;BME280;11144;43.030;25.108;2023-12-29T06:41:58;100064.00;;;-2.27;74.57
21960;BME280;11144;43.030;25.108;2023-12-29T06:43:30;100066.47;;;-2.26;74.50
21960;BME280;11144;43.030;25.108;2023-12-29T06:45:05;100073.38;;;-2.26;74.44
21960;BME280;11144;43.030;25.108;2023-12-29T06:46:40;100058.38;;;-2.34;74.79
21960;BME280;11144;43.030;25.108;2023-12-29T06:48:13;100078.50;;;-2.26;74.80
21960;BME280;11144;43.030;25.108;2023-12-29T06:49:47;100069.13;;;-2.27;74.93
21960;BME280;11144;43.030;25.108;2023-12-29T06:51:23;100070.63;;;-2.23;75.00
21960;BME280;11144;43.030;25.108;2023-12-29T06:52:55;100075.59;;;-2.20;74.89
21960;BME280;11144;43.030;25.108;2023-12-29T06:54:29;100083.22;;;-2.18;75.02
21960;BME280;11144;43.030;25.108;2023-12-29T06:56:01;100072.63;;;-2.12;74.71
21960;BME280;11144;43.030;25.108;2023-12-29T06:57:34;100069.03;;;-2.10;74.92
21960;BME280;11144;43.030;25.108;2023-12-29T06:59:07;100075.59;;;-2.04;74.96
21960;BME280;11144;43.030;25.108;2023-12-29T07:00:40;100077.00;;;-1.99;74.99
21960;BME280;11144;43.030;25.108;2023-12-29T07:02:15;100076.69;;;-1.93;74.75
21960;BME280;11144;43.030;25.108;2023-12-29T07:03:48;100083.22;;;-1.87;74.74
21960;BME280;11144;43.030;25.108;2023-12-29T07:05:21;100076.97;;;-1.83;74.54
21960;BME280;11144;43.030;25.108;2023-12-29T07:06:56;100066.13;;;-1.73;74.51
21960;BME280;11144;43.030;25.108;2023-12-29T07:08:28;100073.56;;;-1.68;74.33
21960;BME280;11144;43.030;25.108;2023-12-29T07:10:02;100074.88;;;-1.61;74.11
21960;BME280;11144;43.030;25.108;2023-12-29T07:11:36;100063.78;;;-1.62;74.22
21960;BME280;11144;43.030;25.108;2023-12-29T07:13:09;100075.91;;;-1.50;74.11
21960;BME280;11144;43.030;25.108;2023-12-29T07:14:41;100076.50;;;-1.44;73.89
21960;BME280;11144;43.030;25.108;2023-12-29T07:16:15;100070.25;;;-1.40;73.93
21960;BME280;11144;43.030;25.108;2023-12-29T07:17:51;100065.69;;;-1.35;73.90
21960;BME280;11144;43.030;25.108;2023-12-29T07:19:25;100070.38;;;-1.28;73.77
21960;BME280;11144;43.030;25.108;2023-12-29T07:20:59;100080.13;;;-1.19;73.72
21960;BME280;11144;43.030;25.108;2023-12-29T07:22:34;100062.59;;;-1.12;73.72
21960;BME280;11144;43.030;25.108;2023-12-29T07:24:07;100070.06;;;-0.80;74.02
21960;BME280;11144;43.030;25.108;2023-12-29T07:25:41;100077.59;;;-0.34;74.83
21960;BME280;11144;43.030;25.108;2023-12-29T07:27:14;100071.84;;;0.16;75.15
21960;BME280;11144;43.030;25.108;2023-12-29T07:28:47;100070.56;;;0.74;75.45
21960;BME280;11144;43.030;25.108;2023-12-29T07:30:20;100073.78;;;1.28;75.12
21960;BME280;11144;43.030;25.108;2023-12-29T07:31:53;100074.31;;;1.82;75.12
21960;BME280;11144;43.030;25.108;2023-12-29T07:33:25;100068.47;;;2.28;74.89
21960;BME280;11144;43.030;25.108;2023-12-29T07:34:59;100075.00;;;2.79;75.17
21960;BME280;11144;43.030;25.108;2023-12-29T07:36:32;100075.69;;;3.27;74.33
21960;BME280;11144;43.030;25.108;2023-12-29T07:38:07;100055.66;;;3.62;73.60
21960;BME280;11144;43.030;25.108;2023-12-29T07:39:39;100058.16;;;4.06;72.82
21960;BME280;11144;43.030;25.108;2023-12-29T07:41:13;100064.31;;;4.37;72.16
21960;BME280;11144;43.030;25.108;2023-12-29T07:42:46;100051.03;;;4.51;72.50
21960;BME280;11144;43.030;25.108;2023-12-29T07:44:22;100063.34;;;4.90;72.51
21960;BME280;11144;43.030;25.108;2023-12-29T07:45:55;100067.34;;;5.24;72.34
21960;BME280;11144;43.030;25.108;2023-12-29T07:47:28;100066.84;;;5.61;71.16
21960;BME280;11144;43.030;25.108;2023-12-29T07:49:02;100057.72;;;5.76;71.16
21960;BME280;11144;43.030;25.108;2023-12-29T07:50:34;100066.72;;;6.02;68.44
21960;BME280;11144;43.030;25.108;2023-12-29T07:52:08;100061.13;;;6.16;70.03
21960;BME280;11144;43.030;25.108;2023-12-29T07:53:42;100064.69;;;6.44;70.68
21960;BME280;11144;43.030;25.108;2023-12-29T07:55:16;100061.28;;;6.62;68.20
21960;BME280;11144;43.030;25.108;2023-12-29T07:56:49;100066.59;;;6.90;69.18
21960;BME280;11144;43.030;25.108;2023-12-29T07:58:22;100073.28;;;7.02;69.48
21960;BME280;11144;43.030;25.108;2023-12-29T07:59:56;100063.34;;;7.24;67.49
21960;BME280;11144;43.030;25.108;2023-12-29T08:01:28;100060.97;;;7.40;66.55
21960;BME280;11144;43.030;25.108;2023-12-29T08:03:02;100058.53;;;7.66;67.36
21960;BME280;11144;43.030;25.108;2023-12-29T08:04:35;100054.66;;;7.70;68.14